createdAt,value
2024-02-13T00:00:42.600Z,10.20
2024-02-13T00:03:10.886Z,10.47
2024-02-13T00:05:40.459Z,9.77
2024-02-13T00:08:08.376Z,10.20
2024-02-13T00:10:37.323Z,10.63
2024-02-13T00:13:05.655Z,9.30
2024-02-13T00:15:32.622Z,8.30
2024-02-13T00:18:04.649Z,7.97
2024-02-13T00:20:31.983Z,7.47
2024-02-13T00:23:00.615Z,6.83
2024-02-13T00:25:29.703Z,9.03
2024-02-13T00:27:56.921Z,8.30
2024-02-13T00:30:24.815Z,8.53
2024-02-13T00:32:51.767Z,9.53
2024-02-13T00:35:19.125Z,9.90
2024-02-13T00:37:47.782Z,6.83
2024-02-13T00:40:14.969Z,7.97
2024-02-13T00:42:41.905Z,6.67
2024-02-13T00:45:12.973Z,9.73
2024-02-13T00:47:42.064Z,8.30
2024-02-13T00:50:09.943Z,7.47
2024-02-13T00:52:41.269Z,7.43
2024-02-13T00:55:09.085Z,5.80
2024-02-13T00:57:37.026Z,5.77
2024-02-13T01:00:12.151Z,7.97
2024-02-13T01:02:40.012Z,5.57
2024-02-13T01:05:10.527Z,6.10
2024-02-13T01:07:37.916Z,5.67
2024-02-13T01:10:07.767Z,6.10
2024-02-13T01:12:35.345Z,7.23
2024-02-13T01:15:02.533Z,5.20
2024-02-13T01:17:30.234Z,10.53
2024-02-13T01:19:58.853Z,3.40
2024-02-13T01:22:25.708Z,6.73
2024-02-13T01:24:52.982Z,6.30
2024-02-13T01:27:20.433Z,6.10
2024-02-13T01:29:48.968Z,6.67
2024-02-13T01:32:17.849Z,6.20
2024-02-13T01:34:45.260Z,6.10
2024-02-13T01:37:12.587Z,6.03
2024-02-13T01:39:39.892Z,7.43
2024-02-13T01:42:06.837Z,4.93
2024-02-13T01:44:35.876Z,7.03
2024-02-13T01:47:05.240Z,7.57
2024-02-13T01:49:33.276Z,6.30
2024-02-13T01:52:02.017Z,2.57
2024-02-13T01:54:30.200Z,5.40
2024-02-13T01:56:57.972Z,5.17
2024-02-13T01:59:27.113Z,4.23
2024-02-13T02:01:55.255Z,5.10
2024-02-13T02:04:23.756Z,6.60
2024-02-13T02:06:50.783Z,8.77
2024-02-13T02:09:17.821Z,5.50
2024-02-13T02:11:44.878Z,6.67
2024-02-13T02:14:12.065Z,5.80
2024-02-13T02:16:39.353Z,8.83
2024-02-13T02:19:06.847Z,7.73
2024-02-13T02:21:34.011Z,5.57
2024-02-13T02:24:01.333Z,5.20
2024-02-13T02:26:28.484Z,7.23
2024-02-13T02:28:55.678Z,6.77
2024-02-13T02:31:22.637Z,6.27
2024-02-13T02:33:49.612Z,6.13
2024-02-13T02:36:16.540Z,4.50
2024-02-13T02:38:43.670Z,7.37
2024-02-13T02:41:10.849Z,8.20
2024-02-13T02:43:38.897Z,5.73
2024-02-13T02:46:06.417Z,6.07
2024-02-13T02:48:33.705Z,6.67
2024-02-13T02:51:00.933Z,6.37
2024-02-13T02:53:28.053Z,5.17
2024-02-13T02:55:55.651Z,7.17
2024-02-13T02:58:22.997Z,4.83
2024-02-13T03:00:50.551Z,6.67
2024-02-13T03:03:22.681Z,3.70
2024-02-13T03:05:52.678Z,4.60
2024-02-13T03:08:20.238Z,4.87
2024-02-13T03:10:47.162Z,3.90
2024-02-13T03:13:15.053Z,5.00
2024-02-13T03:15:42.058Z,5.77
2024-02-13T03:18:11.234Z,6.70
2024-02-13T03:20:38.371Z,5.27
2024-02-13T03:23:06.399Z,4.53
2024-02-13T03:25:33.411Z,6.93
2024-02-13T03:28:00.603Z,7.67
2024-02-13T03:30:28.436Z,4.83
2024-02-13T03:32:55.639Z,5.53
2024-02-13T03:35:22.774Z,6.63
2024-02-13T03:37:50.183Z,7.50
2024-02-13T03:40:17.474Z,6.20
2024-02-13T03:42:47.512Z,6.80
2024-02-13T03:45:14.699Z,7.70
2024-02-13T03:47:42.269Z,8.57
2024-02-13T03:50:09.542Z,7.63
2024-02-13T03:52:38.625Z,7.47
2024-02-13T03:55:07.059Z,7.97
2024-02-13T03:57:34.234Z,7.50
2024-02-13T04:00:01.667Z,8.77
2024-02-13T04:02:31.517Z,8.43
2024-02-13T04:04:58.660Z,7.93
2024-02-13T04:07:25.520Z,4.67
2024-02-13T04:09:52.871Z,10.47
2024-02-13T04:12:19.672Z,12.03
2024-02-13T04:14:46.758Z,7.03
2024-02-13T04:17:14.013Z,7.40
2024-02-13T04:19:40.998Z,10.50
2024-02-13T04:22:09.710Z,7.27
2024-02-13T04:24:36.587Z,7.63
2024-02-13T04:27:06.690Z,8.10
2024-02-13T04:29:34.437Z,12.20
2024-02-13T04:32:02.679Z,7.97
2024-02-13T04:34:31.211Z,9.47
2024-02-13T04:36:59.194Z,8.13
2024-02-13T04:39:26.274Z,8.37
2024-02-13T04:41:54.328Z,7.43
2024-02-13T04:44:21.451Z,6.67
2024-02-13T04:46:49.787Z,9.07
2024-02-13T04:49:16.707Z,7.00
2024-02-13T04:51:44.518Z,10.77
2024-02-13T04:54:11.582Z,8.40
2024-02-13T04:56:38.807Z,8.67
2024-02-13T04:59:08.770Z,10.57
2024-02-13T05:01:40.803Z,12.10
2024-02-13T05:04:17.030Z,8.07
2024-02-13T05:07:03.277Z,12.53
2024-02-13T05:09:30.388Z,11.53
2024-02-13T05:11:58.456Z,15.23
2024-02-13T05:14:26.575Z,11.77
2024-02-13T05:16:53.989Z,10.17
2024-02-13T05:19:22.426Z,11.37
2024-02-13T05:21:51.880Z,11.03
2024-02-13T05:24:19.279Z,11.83
2024-02-13T05:26:46.274Z,16.40
2024-02-13T05:29:13.414Z,11.67
2024-02-13T05:31:40.765Z,9.67
2024-02-13T05:34:07.836Z,8.80
2024-02-13T05:36:35.129Z,10.67
2024-02-13T05:39:03.946Z,10.10
2024-02-13T05:41:30.906Z,11.73
2024-02-13T05:43:57.826Z,10.83
2024-02-13T05:46:25.569Z,11.30
2024-02-13T05:48:55.631Z,13.90
2024-02-13T05:51:22.730Z,12.27
2024-02-13T05:53:50.077Z,15.83
2024-02-13T05:56:26.564Z,6.17
2024-02-13T05:58:57.184Z,16.60
2024-02-13T06:01:26.201Z,12.57
2024-02-13T06:03:57.071Z,16.03
2024-02-13T06:06:24.755Z,12.97
2024-02-13T06:08:55.757Z,13.43
2024-02-13T06:11:24.814Z,15.83
2024-02-13T06:13:52.201Z,13.10
2024-02-13T06:16:19.224Z,13.17
2024-02-13T06:18:48.372Z,12.70
2024-02-13T06:21:21.596Z,13.13
2024-02-13T06:23:50.683Z,15.63
2024-02-13T06:26:17.679Z,13.93
2024-02-13T06:28:44.837Z,14.90
2024-02-13T06:31:12.082Z,14.83
2024-02-13T06:33:40.427Z,16.00
2024-02-13T06:36:07.788Z,14.20
2024-02-13T06:38:36.535Z,15.33
2024-02-13T06:41:06.829Z,11.63
2024-02-13T06:43:34.762Z,14.97
2024-02-13T06:46:04.880Z,16.40
2024-02-13T06:48:32.312Z,14.40
2024-02-13T06:51:00.436Z,16.67
2024-02-13T06:53:28.284Z,16.63
2024-02-13T06:55:55.407Z,16.50
2024-02-13T06:58:22.236Z,15.60
2024-02-13T07:00:49.215Z,14.43
2024-02-13T07:03:16.191Z,17.30
2024-02-13T07:05:43.154Z,16.87
2024-02-13T07:08:10.108Z,20.90
2024-02-13T07:10:38.156Z,16.47
2024-02-13T07:13:05.122Z,16.80
2024-02-13T07:15:31.948Z,17.83
2024-02-13T07:18:01.317Z,17.20
2024-02-13T07:20:29.388Z,19.20
2024-02-13T07:22:56.644Z,23.07
2024-02-13T07:25:23.656Z,35.77
2024-02-13T07:27:50.654Z,16.70
2024-02-13T07:30:18.069Z,18.67
2024-02-13T07:32:48.709Z,21.77
2024-02-13T07:35:16.245Z,21.20
2024-02-13T07:37:43.574Z,20.00
2024-02-13T07:40:11.288Z,19.10
2024-02-13T07:42:39.042Z,18.30
2024-02-13T07:45:06.557Z,22.37
2024-02-13T07:47:34.940Z,16.00
2024-02-13T07:50:01.839Z,15.83
2024-02-13T07:52:28.802Z,18.27
2024-02-13T07:54:55.743Z,17.57
2024-02-13T07:57:22.771Z,17.37
2024-02-13T07:59:56.315Z,15.80
2024-02-13T08:02:24.742Z,18.60
2024-02-13T08:04:52.948Z,14.27
2024-02-13T08:07:20.103Z,19.27
2024-02-13T08:09:47.145Z,17.53
2024-02-13T08:12:14.248Z,22.07
2024-02-13T08:14:41.655Z,19.03
2024-02-13T08:17:10.052Z,20.03
2024-02-13T08:19:41.810Z,23.60
2024-02-13T08:22:09.469Z,21.60
2024-02-13T08:24:36.984Z,23.43
2024-02-13T08:27:04.528Z,41.80
2024-02-13T08:29:32.277Z,28.20
2024-02-13T08:31:59.634Z,27.77
2024-02-13T08:34:27.222Z,23.10
2024-02-13T08:36:56.660Z,21.13
2024-02-13T08:39:23.579Z,20.63
2024-02-13T08:41:50.691Z,18.13
2024-02-13T08:44:20.120Z,18.83
2024-02-13T08:46:47.287Z,19.07
2024-02-13T08:49:15.244Z,21.83
2024-02-13T08:51:42.507Z,18.77
2024-02-13T08:54:12.815Z,19.93
2024-02-13T08:56:41.045Z,20.10
2024-02-13T08:59:09.289Z,13.57
2024-02-13T09:01:36.708Z,10.90
2024-02-13T09:04:04.117Z,16.53
2024-02-13T09:06:33.531Z,13.27
2024-02-13T09:09:02.867Z,11.60
2024-02-13T09:11:32.547Z,15.47
2024-02-13T09:13:59.698Z,15.90
2024-02-13T09:16:26.940Z,19.70
2024-02-13T09:18:57.535Z,20.67
2024-02-13T09:21:25.540Z,17.80
2024-02-13T09:23:53.020Z,12.67
2024-02-13T09:26:20.246Z,13.47
2024-02-13T09:28:47.164Z,10.67
2024-02-13T09:31:15.247Z,14.10
2024-02-13T09:33:43.117Z,8.67
2024-02-13T09:36:15.487Z,12.83
2024-02-13T09:38:43.363Z,11.33
2024-02-13T09:41:11.832Z,13.30
2024-02-13T09:43:44.199Z,10.93
2024-02-13T09:46:17.867Z,7.27
2024-02-13T09:48:49.383Z,10.77
2024-02-13T09:51:21.409Z,13.37
2024-02-13T09:53:49.420Z,12.87
2024-02-13T09:56:17.182Z,12.90
2024-02-13T09:58:46.437Z,8.87
2024-02-13T10:01:13.805Z,9.20
2024-02-13T10:03:40.775Z,13.80
2024-02-13T10:06:07.776Z,12.70
2024-02-13T10:08:39.047Z,11.27
2024-02-13T10:11:10.252Z,14.13
2024-02-13T10:13:46.711Z,14.60
2024-02-13T10:16:27.608Z,12.47
2024-02-13T10:19:03.112Z,11.67
2024-02-13T10:21:31.072Z,11.77
2024-02-13T10:24:13.278Z,7.37
2024-02-13T10:26:40.735Z,11.47
2024-02-13T10:29:08.943Z,10.33
2024-02-13T10:31:36.764Z,9.70
2024-02-13T10:34:08.911Z,11.83
2024-02-13T10:36:37.760Z,8.77
2024-02-13T10:39:10.210Z,10.17
2024-02-13T10:41:41.303Z,10.63
2024-02-13T10:44:14.553Z,12.70
2024-02-13T10:46:43.478Z,11.43
2024-02-13T10:49:51.215Z,12.97
2024-02-13T10:52:18.777Z,7.30
2024-02-13T10:54:47.532Z,13.57
2024-02-13T10:57:18.310Z,10.40
2024-02-13T10:59:48.559Z,9.27
2024-02-13T11:02:19.125Z,9.17
2024-02-13T11:04:48.738Z,7.00
2024-02-13T11:07:18.097Z,6.87
2024-02-13T11:09:45.643Z,8.63
2024-02-13T11:12:14.244Z,6.73
2024-02-13T11:14:42.488Z,8.83
2024-02-13T11:17:11.295Z,11.80
2024-02-13T11:19:46.031Z,5.10
2024-02-13T11:22:16.387Z,8.67
2024-02-13T11:24:52.743Z,9.37
2024-02-13T11:27:30.977Z,10.67
2024-02-13T11:30:01.114Z,9.40
2024-02-13T11:32:33.431Z,7.57
2024-02-13T11:35:01.069Z,9.20
2024-02-13T11:37:29.129Z,6.33
2024-02-13T11:39:59.117Z,7.77
2024-02-13T11:42:33.804Z,8.60
2024-02-13T11:45:04.995Z,8.30
2024-02-13T11:47:32.606Z,5.60
2024-02-13T11:50:00.386Z,4.40
2024-02-13T11:52:27.734Z,7.70
2024-02-13T11:54:54.740Z,9.07
2024-02-13T11:57:26.550Z,13.33
2024-02-13T12:00:01.594Z,10.53
2024-02-13T12:02:30.833Z,11.10
2024-02-13T12:04:57.615Z,8.30
2024-02-13T12:07:24.448Z,7.47
2024-02-13T12:09:53.212Z,5.23
2024-02-13T12:12:21.438Z,12.43
2024-02-13T12:14:51.550Z,7.70
2024-02-13T12:17:18.721Z,10.43
2024-02-13T12:19:47.622Z,12.10
2024-02-13T12:22:17.911Z,8.53
2024-02-13T12:24:46.680Z,11.33
2024-02-13T12:27:16.486Z,10.93
2024-02-13T12:29:44.592Z,10.03
2024-02-13T12:32:19.306Z,11.30
2024-02-13T12:34:51.862Z,7.77
2024-02-13T12:37:20.095Z,11.10
2024-02-13T12:39:48.206Z,10.83
2024-02-13T12:42:18.745Z,13.40
2024-02-13T12:44:48.527Z,8.67
2024-02-13T12:47:18.663Z,6.13
2024-02-13T12:49:46.660Z,12.90
2024-02-13T12:52:18.680Z,8.13
2024-02-13T12:54:48.604Z,9.73
2024-02-13T12:57:16.187Z,5.80
2024-02-13T12:59:45.076Z,9.50
2024-02-13T13:02:15.198Z,7.00
2024-02-13T13:04:42.756Z,11.03
2024-02-13T13:07:10.422Z,9.00
2024-02-13T13:09:39.759Z,8.90
2024-02-13T13:12:09.700Z,8.10
2024-02-13T13:14:39.429Z,10.23
2024-02-13T13:17:08.765Z,7.13
2024-02-13T13:19:36.015Z,12.27
2024-02-13T13:22:04.081Z,8.57
2024-02-13T13:24:33.149Z,8.73
2024-02-13T13:27:00.074Z,10.13
2024-02-13T13:29:27.490Z,12.37
2024-02-13T13:31:54.818Z,12.07
2024-02-13T13:34:24.483Z,10.30
2024-02-13T13:36:52.249Z,11.13
2024-02-13T13:39:19.168Z,10.90
2024-02-13T13:41:46.477Z,7.17
2024-02-13T13:44:14.943Z,6.50
2024-02-13T13:46:42.700Z,13.33
2024-02-13T13:49:10.536Z,10.70
2024-02-13T13:51:40.285Z,13.70
2024-02-13T13:54:07.701Z,7.87
2024-02-13T13:56:34.695Z,10.20
2024-02-13T13:59:01.536Z,9.00
2024-02-13T14:01:28.549Z,9.97
2024-02-13T14:03:56.858Z,10.00
2024-02-13T14:06:24.143Z,10.20
2024-02-13T14:08:51.257Z,74.00
2024-02-13T14:11:19.013Z,16.70
2024-02-13T14:13:47.679Z,6.80
2024-02-13T14:16:16.341Z,18.47
2024-02-13T14:18:44.594Z,12.67
2024-02-13T14:21:11.992Z,8.17
2024-02-13T14:23:39.293Z,9.07
2024-02-13T14:26:06.098Z,5.70
2024-02-13T14:28:33.202Z,5.73
2024-02-13T14:31:00.806Z,6.27
2024-02-13T14:33:28.633Z,9.87
2024-02-13T14:35:56.186Z,9.30
2024-02-13T14:38:23.574Z,12.67
2024-02-13T14:40:50.828Z,9.40
2024-02-13T14:43:18.801Z,5.97
2024-02-13T14:45:47.153Z,9.67
2024-02-13T14:48:16.324Z,8.13
2024-02-13T14:50:44.444Z,4.20
2024-02-13T14:53:15.580Z,4.07
2024-02-13T14:55:43.679Z,7.40
2024-02-13T14:58:19.107Z,5.57
2024-02-13T15:00:56.352Z,11.17
2024-02-13T15:03:25.133Z,10.20
2024-02-13T15:05:53.327Z,9.67
2024-02-13T15:08:23.016Z,9.70
2024-02-13T15:10:50.351Z,11.07
2024-02-13T15:13:18.044Z,5.17
2024-02-13T15:15:49.330Z,5.57
2024-02-13T15:18:16.793Z,6.63
2024-02-13T15:20:44.514Z,6.87
2024-02-13T15:23:13.787Z,6.53
2024-02-13T15:25:41.994Z,5.37
2024-02-13T15:28:08.990Z,12.03
2024-02-13T15:30:38.816Z,13.53
2024-02-13T15:33:06.802Z,19.73
2024-02-13T15:35:42.773Z,12.37
2024-02-13T15:38:28.689Z,11.73
2024-02-13T15:41:14.326Z,8.00
2024-02-13T15:43:59.624Z,5.80
2024-02-13T15:46:45.277Z,5.00
2024-02-13T15:49:16.446Z,5.53
2024-02-13T15:51:45.479Z,10.10
2024-02-13T15:54:12.659Z,10.40
2024-02-13T15:56:46.970Z,9.53
2024-02-13T15:59:13.829Z,9.03
2024-02-13T16:01:40.629Z,3.40
2024-02-13T16:04:10.987Z,12.27
2024-02-13T16:06:38.776Z,5.47
2024-02-13T16:09:05.795Z,5.40
2024-02-13T16:11:32.921Z,5.03
2024-02-13T16:14:01.048Z,5.70
2024-02-13T16:16:28.021Z,7.27
2024-02-13T16:18:55.510Z,10.07
2024-02-13T16:21:24.036Z,8.27
2024-02-13T16:23:51.474Z,9.63
2024-02-13T16:26:18.949Z,17.27
2024-02-13T16:28:46.247Z,11.90
2024-02-13T16:31:13.181Z,20.97
2024-02-13T16:33:40.156Z,22.90
2024-02-13T16:36:07.510Z,17.33
2024-02-13T16:38:34.387Z,15.27
2024-02-13T16:41:01.240Z,22.80
2024-02-13T16:43:31.178Z,19.03
2024-02-13T16:45:58.487Z,20.23
2024-02-13T16:48:27.126Z,23.67
2024-02-13T16:50:54.065Z,17.53
2024-02-13T16:53:21.324Z,16.27
2024-02-13T16:55:49.960Z,5.93
2024-02-13T16:58:18.079Z,7.87
2024-02-13T17:00:45.204Z,9.93
2024-02-13T17:03:15.325Z,6.50
2024-02-13T17:05:42.293Z,8.23
2024-02-13T17:08:10.737Z,7.87
2024-02-13T17:10:37.648Z,10.80
2024-02-13T17:13:05.262Z,18.83
2024-02-13T17:15:32.112Z,29.37
2024-02-13T17:17:59.392Z,18.00
2024-02-13T17:20:26.461Z,15.07
2024-02-13T17:22:56.400Z,19.97
2024-02-13T17:25:23.371Z,15.27
2024-02-13T17:27:50.166Z,7.33
2024-02-13T17:30:17.008Z,10.03
2024-02-13T17:32:45.686Z,11.20
2024-02-13T17:35:13.208Z,10.40
2024-02-13T17:37:40.399Z,8.90
2024-02-13T17:40:12.688Z,9.00
2024-02-13T17:42:40.138Z,8.67
2024-02-13T17:45:08.204Z,10.73
2024-02-13T17:47:38.027Z,10.47
2024-02-13T17:50:07.065Z,7.43
2024-02-13T17:52:33.914Z,8.10
2024-02-13T17:55:01.693Z,9.73
2024-02-13T17:57:28.468Z,13.17
2024-02-13T17:59:57.527Z,11.90
2024-02-13T18:02:24.892Z,13.87
2024-02-13T18:04:52.448Z,8.90
2024-02-13T18:07:19.691Z,7.53
2024-02-13T18:09:47.152Z,11.63
2024-02-13T18:12:16.678Z,11.87
2024-02-13T18:14:43.978Z,9.13
2024-02-13T18:17:12.661Z,11.07
2024-02-13T18:19:39.692Z,10.30
2024-02-13T18:22:07.516Z,9.23
2024-02-13T18:24:34.578Z,11.60
2024-02-13T18:27:01.578Z,11.30
2024-02-13T18:29:28.649Z,13.57
2024-02-13T18:31:57.782Z,11.43
2024-02-13T18:34:25.269Z,11.77
2024-02-13T18:36:52.118Z,17.20
2024-02-13T18:39:19.546Z,13.63
2024-02-13T18:41:49.260Z,11.23
2024-02-13T18:44:16.160Z,13.63
2024-02-13T18:46:43.485Z,18.00
2024-02-13T18:49:11.813Z,28.10
2024-02-13T18:51:39.198Z,13.07
2024-02-13T18:54:06.153Z,10.10
2024-02-13T18:56:37.592Z,16.93
2024-02-13T18:59:05.851Z,12.93
2024-02-13T19:01:33.040Z,12.40
2024-02-13T19:03:59.850Z,14.90
2024-02-13T19:06:26.710Z,13.00
2024-02-13T19:08:54.086Z,12.10
2024-02-13T19:11:20.950Z,11.53
2024-02-13T19:13:50.541Z,11.30
2024-02-13T19:16:17.425Z,15.53
2024-02-13T19:18:44.978Z,11.07
2024-02-13T19:21:12.001Z,11.70
2024-02-13T19:23:38.863Z,8.13
2024-02-13T19:26:06.089Z,10.90
2024-02-13T19:28:33.589Z,13.67
2024-02-13T19:31:00.764Z,10.83
2024-02-13T19:33:28.105Z,12.77
2024-02-13T19:35:55.049Z,18.10
2024-02-13T19:38:22.539Z,16.83
2024-02-13T19:40:49.623Z,15.10
2024-02-13T19:43:16.836Z,17.70
2024-02-13T19:45:43.892Z,17.73
2024-02-13T19:48:11.442Z,17.80
2024-02-13T19:50:40.626Z,16.57
2024-02-13T19:53:10.476Z,18.00
2024-02-13T19:55:38.636Z,16.83
2024-02-13T19:58:07.529Z,22.03
2024-02-13T20:00:35.047Z,16.03
2024-02-13T20:03:04.014Z,17.10
2024-02-13T20:05:31.279Z,19.93
2024-02-13T20:07:59.498Z,20.10
2024-02-13T20:10:26.393Z,29.53
2024-02-13T20:12:55.310Z,22.63
2024-02-13T20:15:22.228Z,26.20
2024-02-13T20:17:49.141Z,25.07
2024-02-13T20:20:16.556Z,21.17
2024-02-13T20:22:46.940Z,21.23
2024-02-13T20:25:14.523Z,23.70
2024-02-13T20:27:45.520Z,19.63
2024-02-13T20:30:16.601Z,22.23
2024-02-13T20:32:48.969Z,19.83
2024-02-13T20:35:16.991Z,27.50
2024-02-13T20:37:44.083Z,27.57
2024-02-13T20:40:12.724Z,27.63
2024-02-13T20:42:41.734Z,23.47
2024-02-13T20:45:21.190Z,23.53
2024-02-13T20:47:53.191Z,22.97
2024-02-13T20:50:22.277Z,21.90
2024-02-13T20:52:49.270Z,25.50
2024-02-13T20:55:18.377Z,26.77
2024-02-13T20:57:45.239Z,19.50
2024-02-13T21:00:15.546Z,21.33
2024-02-13T21:02:43.415Z,20.90
2024-02-13T21:05:11.273Z,20.23
2024-02-13T21:07:38.337Z,17.37
2024-02-13T21:10:10.226Z,20.60
2024-02-13T21:12:37.925Z,20.07
2024-02-13T21:15:05.710Z,20.50
2024-02-13T21:17:42.703Z,21.13
2024-02-13T21:20:17.943Z,25.30
2024-02-13T21:23:05.604Z,17.73
2024-02-13T21:25:34.112Z,15.43
2024-02-13T21:28:01.118Z,23.37
2024-02-13T21:30:30.214Z,22.30
2024-02-13T21:32:58.898Z,25.00
2024-02-13T21:35:27.174Z,22.27
2024-02-13T21:37:54.031Z,19.60
2024-02-13T21:40:21.485Z,28.13
2024-02-13T21:42:49.307Z,27.50
2024-02-13T21:45:16.405Z,19.80
2024-02-13T21:47:45.533Z,20.77
2024-02-13T21:50:19.150Z,19.07
2024-02-13T21:52:45.971Z,19.60
2024-02-13T21:55:12.960Z,18.93
2024-02-13T21:57:39.764Z,17.47
2024-02-13T22:00:08.183Z,18.33
2024-02-13T22:02:35.501Z,22.73
2024-02-13T22:05:02.710Z,17.63
2024-02-13T22:07:29.485Z,17.40
2024-02-13T22:10:00.204Z,20.13
2024-02-13T22:12:27.816Z,19.10
2024-02-13T22:15:00.730Z,21.77
2024-02-13T22:17:28.173Z,17.73
2024-02-13T22:20:01.447Z,20.13
2024-02-13T22:22:28.412Z,17.43
2024-02-13T22:24:55.753Z,16.33
2024-02-13T22:27:29.087Z,22.73
2024-02-13T22:30:06.476Z,18.27
2024-02-13T22:32:35.511Z,14.90
2024-02-13T22:35:04.969Z,18.97
2024-02-13T22:37:31.983Z,22.23
2024-02-13T22:39:59.745Z,17.80
2024-02-13T22:42:26.777Z,20.23
2024-02-13T22:44:59.724Z,13.70
2024-02-13T22:47:27.962Z,21.07
2024-02-13T22:49:57.130Z,22.80
2024-02-13T22:52:24.257Z,17.77
2024-02-13T22:54:53.262Z,19.47
2024-02-13T22:57:20.343Z,17.57
2024-02-13T22:59:48.483Z,19.83
2024-02-13T23:02:15.714Z,18.83
2024-02-13T23:04:50.345Z,21.70
2024-02-13T23:07:19.981Z,18.17
2024-02-13T23:09:48.224Z,19.87
2024-02-13T23:12:15.279Z,20.20
2024-02-13T23:14:45.222Z,18.13
2024-02-13T23:17:12.227Z,25.07
2024-02-13T23:19:42.335Z,21.07
2024-02-13T23:22:16.792Z,24.53
2024-02-13T23:24:44.777Z,17.63
2024-02-13T23:27:12.855Z,17.93
2024-02-13T23:29:40.381Z,18.80
2024-02-13T23:32:07.573Z,16.27
2024-02-13T23:34:34.569Z,24.70
2024-02-13T23:37:04.961Z,21.27
2024-02-13T23:39:33.813Z,19.47
2024-02-13T23:42:00.678Z,17.87
2024-02-13T23:44:27.831Z,18.80
2024-02-13T23:46:54.639Z,23.33
2024-02-13T23:49:22.734Z,24.27
2024-02-13T23:51:49.856Z,22.73
2024-02-13T23:54:18.192Z,23.90
2024-02-13T23:56:45.092Z,22.00
2024-02-13T23:59:12.296Z,27.47
